MAS841 WMKK-WIBB
Flight info
| Callsign | MAS841 |
|---|---|
| Flight time | 0h 49m |
| Altitude | 28000 |
| Route | SALAX1D SALAX |
| Aircraft | B738/M-SDE2E3FGHIRWXY/LB1 |
Departure
| Time | 2026-04-15 03:11 |
|---|---|
| Airport | Kuala Lumpur International Airport (WMKK) |
Arrival
| Time | 2026-04-15 04:01 |
|---|---|
| Airport | Sultan Syarif Kasim II International Airport / Roesmin Nurjadin AFB (WIBB) |
| Time | Latitude | Longitude | Altitude | Speed | Heading |
|---|---|---|---|---|---|
| 2026-04-15 02:39 | 2.75359 | 101.70786 | 72 ft | 0 kts | 326° |
| 2026-04-15 03:04 | 2.75355 | 101.70789 | 65 ft | 3 kts | 326° |
| 2026-04-15 03:04 | 2.75333 | 101.70804 | 64 ft | 4 kts | 326° |
| 2026-04-15 03:04 | 2.75313 | 101.70817 | 62 ft | 1 kts | 326° |
| 2026-04-15 03:05 | 2.75312 | 101.70818 | 62 ft | 0 kts | 326° |
| 2026-04-15 03:07 | 2.75315 | 101.70818 | 62 ft | 0 kts | 346° |
| 2026-04-15 03:07 | 2.75315 | 101.70841 | 63 ft | 4 kts | 114° |
| 2026-04-15 03:08 | 2.75313 | 101.70846 | 64 ft | 1 kts | 111° |
| 2026-04-15 03:08 | 2.75334 | 101.70897 | 68 ft | 15 kts | 56° |
| 2026-04-15 03:08 | 2.75395 | 101.70992 | 67 ft | 16 kts | 57° |
| 2026-04-15 03:08 | 2.75458 | 101.71085 | 70 ft | 16 kts | 56° |
| 2026-04-15 03:09 | 2.75518 | 101.71174 | 68 ft | 15 kts | 56° |
| 2026-04-15 03:09 | 2.75574 | 101.71259 | 71 ft | 14 kts | 56° |
| 2026-04-15 03:09 | 2.75627 | 101.71339 | 64 ft | 14 kts | 56° |
| 2026-04-15 03:09 | 2.75646 | 101.71430 | 68 ft | 15 kts | 125° |
| 2026-04-15 03:10 | 2.75561 | 101.71498 | 68 ft | 11 kts | 117° |
| 2026-04-15 03:10 | 2.75580 | 101.71576 | 71 ft | 13 kts | 54° |
| 2026-04-15 03:10 | 2.75650 | 101.71647 | 70 ft | 15 kts | 8° |
| 2026-04-15 03:10 | 2.75834 | 101.71541 | 70 ft | 62 kts | 326° |
| 2026-04-15 03:11 | 2.76383 | 101.71168 | 67 ft | 126 kts | 326° |
| 2026-04-15 03:11 | 2.77260 | 101.70587 | 148 ft | 167 kts | 327° |
| 2026-04-15 03:11 | 2.78260 | 101.69947 | 675 ft | 176 kts | 327° |
| 2026-04-15 03:11 | 2.79281 | 101.69313 | 1408 ft | 171 kts | 327° |
| 2026-04-15 03:12 | 2.80374 | 101.68779 | 1970 ft | 183 kts | 340° |
| 2026-04-15 03:12 | 2.81664 | 101.68312 | 2198 ft | 210 kts | 339° |
| 2026-04-15 03:12 | 2.83112 | 101.67789 | 2361 ft | 232 kts | 339° |
| 2026-04-15 03:12 | 2.84687 | 101.67221 | 2577 ft | 251 kts | 340° |
| 2026-04-15 03:13 | 2.86397 | 101.66605 | 2905 ft | 267 kts | 340° |
| 2026-04-15 03:13 | 2.88162 | 101.65968 | 3574 ft | 271 kts | 340° |
| 2026-04-15 03:13 | 2.89946 | 101.65324 | 4287 ft | 274 kts | 339° |
| 2026-04-15 03:13 | 2.91752 | 101.64674 | 4977 ft | 278 kts | 340° |
| 2026-04-15 03:14 | 2.93450 | 101.63766 | 5647 ft | 280 kts | 316° |
| 2026-04-15 03:14 | 2.94509 | 101.62160 | 6369 ft | 279 kts | 287° |
| 2026-04-15 03:14 | 2.94695 | 101.60237 | 7022 ft | 281 kts | 260° |
| 2026-04-15 03:14 | 2.94106 | 101.58379 | 7714 ft | 282 kts | 245° |
| 2026-04-15 03:15 | 2.93304 | 101.56602 | 8428 ft | 285 kts | 244° |
| 2026-04-15 03:15 | 2.92475 | 101.54786 | 9140 ft | 289 kts | 244° |
| 2026-04-15 03:15 | 2.91494 | 101.53029 | 9853 ft | 292 kts | 227° |
| 2026-04-15 03:15 | 2.89865 | 101.51814 | 10393 ft | 301 kts | 203° |
| 2026-04-15 03:16 | 2.87753 | 101.51421 | 10541 ft | 323 kts | 175° |
| 2026-04-15 03:16 | 2.85487 | 101.51924 | 10715 ft | 344 kts | 163° |
| 2026-04-15 03:16 | 2.83146 | 101.52660 | 10947 ft | 359 kts | 162° |
| 2026-04-15 03:16 | 2.80745 | 101.53452 | 11456 ft | 365 kts | 161° |
| 2026-04-15 03:17 | 2.78316 | 101.54253 | 12068 ft | 368 kts | 162° |
| 2026-04-15 03:17 | 2.75872 | 101.55049 | 12681 ft | 372 kts | 162° |
| 2026-04-15 03:17 | 2.73399 | 101.55844 | 13296 ft | 375 kts | 162° |
| 2026-04-15 03:17 | 2.70897 | 101.56641 | 13862 ft | 380 kts | 162° |
| 2026-04-15 03:18 | 2.68363 | 101.57443 | 14423 ft | 383 kts | 162° |
| 2026-04-15 03:18 | 2.65815 | 101.58246 | 15008 ft | 385 kts | 162° |
| 2026-04-15 03:18 | 2.63243 | 101.59055 | 15552 ft | 389 kts | 162° |
| 2026-04-15 03:18 | 2.60652 | 101.59870 | 16107 ft | 392 kts | 162° |
| 2026-04-15 03:19 | 2.58032 | 101.60694 | 16606 ft | 397 kts | 162° |
| 2026-04-15 03:19 | 2.55412 | 101.61518 | 17092 ft | 401 kts | 162° |
| 2026-04-15 03:19 | 2.52737 | 101.62360 | 17654 ft | 404 kts | 162° |
| 2026-04-15 03:19 | 2.50016 | 101.63216 | 18206 ft | 407 kts | 162° |
| 2026-04-15 03:20 | 2.47339 | 101.64058 | 18655 ft | 410 kts | 162° |
| 2026-04-15 03:20 | 2.44612 | 101.64916 | 19094 ft | 413 kts | 162° |
| 2026-04-15 03:20 | 2.41828 | 101.65792 | 19541 ft | 416 kts | 162° |
| 2026-04-15 03:20 | 2.39073 | 101.66595 | 19979 ft | 419 kts | 169° |
| 2026-04-15 03:21 | 2.36167 | 101.66637 | 20375 ft | 422 kts | 189° |
| 2026-04-15 03:21 | 2.30508 | 101.64987 | 21244 ft | 427 kts | 196° |
| 2026-04-15 03:21 | 2.27634 | 101.64169 | 21636 ft | 430 kts | 195° |
| 2026-04-15 03:22 | 2.24746 | 101.63348 | 22026 ft | 433 kts | 195° |
| 2026-04-15 03:22 | 2.21833 | 101.62519 | 22415 ft | 436 kts | 195° |
| 2026-04-15 03:22 | 2.18912 | 101.61687 | 22793 ft | 439 kts | 195° |
| 2026-04-15 03:22 | 2.15966 | 101.60848 | 23171 ft | 441 kts | 195° |
| 2026-04-15 03:23 | 2.13007 | 101.60005 | 23535 ft | 443 kts | 195° |
| 2026-04-15 03:23 | 2.10037 | 101.59158 | 23839 ft | 445 kts | 195° |
| 2026-04-15 03:23 | 2.07053 | 101.58308 | 24146 ft | 447 kts | 195° |
| 2026-04-15 03:23 | 2.04056 | 101.57454 | 24469 ft | 448 kts | 195° |
| 2026-04-15 03:24 | 2.01046 | 101.56596 | 24765 ft | 450 kts | 195° |
| 2026-04-15 03:24 | 1.98022 | 101.55734 | 25063 ft | 452 kts | 195° |
| 2026-04-15 03:24 | 1.94995 | 101.54872 | 25348 ft | 454 kts | 195° |
| 2026-04-15 03:24 | 1.91910 | 101.54193 | 25605 ft | 456 kts | 186° |
| 2026-04-15 03:25 | 1.88747 | 101.53937 | 25889 ft | 457 kts | 182° |
| 2026-04-15 03:25 | 1.85552 | 101.53789 | 25915 ft | 462 kts | 182° |
| 2026-04-15 03:25 | 1.82334 | 101.53656 | 25925 ft | 462 kts | 182° |
| 2026-04-15 03:25 | 1.79124 | 101.53503 | 25918 ft | 458 kts | 182° |
| 2026-04-15 03:26 | 1.75983 | 101.53325 | 25921 ft | 457 kts | 183° |
| 2026-04-15 03:26 | 1.72802 | 101.53125 | 25930 ft | 458 kts | 183° |
| 2026-04-15 03:26 | 1.69624 | 101.52914 | 25928 ft | 458 kts | 184° |
| 2026-04-15 03:26 | 1.66448 | 101.52700 | 25919 ft | 452 kts | 184° |
| 2026-04-15 03:27 | 1.63327 | 101.52490 | 25915 ft | 445 kts | 183° |
| 2026-04-15 03:27 | 1.60252 | 101.52285 | 25916 ft | 441 kts | 183° |
| 2026-04-15 03:27 | 1.57179 | 101.52081 | 25927 ft | 442 kts | 183° |
| 2026-04-15 03:27 | 1.54101 | 101.51876 | 25926 ft | 444 kts | 184° |
| 2026-04-15 03:28 | 1.51060 | 101.51660 | 25928 ft | 443 kts | 184° |
| 2026-04-15 03:28 | 1.47981 | 101.51432 | 25649 ft | 443 kts | 184° |
| 2026-04-15 03:28 | 1.44931 | 101.51204 | 25791 ft | 440 kts | 184° |
| 2026-04-15 03:28 | 1.41865 | 101.50975 | 25838 ft | 443 kts | 184° |
| 2026-04-15 03:29 | 1.38738 | 101.50742 | 25885 ft | 445 kts | 184° |
| 2026-04-15 03:29 | 1.35694 | 101.50517 | 25886 ft | 445 kts | 184° |
| 2026-04-15 03:29 | 1.32602 | 101.50290 | 25891 ft | 445 kts | 184° |
| 2026-04-15 03:29 | 1.29507 | 101.50062 | 25892 ft | 446 kts | 184° |
| 2026-04-15 03:30 | 1.26412 | 101.49835 | 25893 ft | 446 kts | 184° |
| 2026-04-15 03:30 | 1.23320 | 101.49607 | 25890 ft | 445 kts | 184° |
| 2026-04-15 03:30 | 1.20238 | 101.49381 | 25891 ft | 445 kts | 184° |
| 2026-04-15 03:30 | 1.17139 | 101.49153 | 25889 ft | 444 kts | 184° |
| 2026-04-15 03:31 | 1.14040 | 101.48925 | 25146 ft | 451 kts | 184° |
| 2026-04-15 03:31 | 1.10895 | 101.48694 | 24330 ft | 454 kts | 184° |
| 2026-04-15 03:31 | 1.07739 | 101.48464 | 23554 ft | 455 kts | 184° |
| 2026-04-15 03:31 | 1.04585 | 101.48235 | 22645 ft | 455 kts | 184° |
| 2026-04-15 03:32 | 1.01440 | 101.48008 | 22199 ft | 443 kts | 184° |
| 2026-04-15 03:32 | 0.98653 | 101.47806 | 22281 ft | 413 kts | 184° |
| 2026-04-15 03:32 | 0.97294 | 101.47707 | 22185 ft | 402 kts | 184° |
| 2026-04-15 03:32 | 0.94568 | 101.47456 | 21959 ft | 383 kts | 191° |
| 2026-04-15 03:33 | 0.92143 | 101.46545 | 21739 ft | 366 kts | 212° |
| 2026-04-15 03:33 | 0.90264 | 101.45011 | 21420 ft | 355 kts | 229° |
| 2026-04-15 03:33 | 0.89642 | 101.44215 | 21356 ft | 348 kts | 237° |
| 2026-04-15 03:35 | 0.88960 | 101.43048 | 21176 ft | 342 kts | 245° |
| 2026-04-15 03:36 | 0.88235 | 101.40791 | 20578 ft | 341 kts | 262° |
| 2026-04-15 03:36 | 0.88182 | 101.38467 | 20030 ft | 339 kts | 278° |
| 2026-04-15 03:36 | 0.88785 | 101.36214 | 19475 ft | 336 kts | 295° |
| 2026-04-15 03:36 | 0.90002 | 101.34237 | 18946 ft | 334 kts | 311° |
| 2026-04-15 03:37 | 0.91722 | 101.32702 | 18423 ft | 331 kts | 328° |
| 2026-04-15 03:37 | 0.93779 | 101.31682 | 17849 ft | 329 kts | 341° |
| 2026-04-15 03:37 | 0.95998 | 101.31176 | 17234 ft | 327 kts | 356° |
| 2026-04-15 03:37 | 0.98267 | 101.31201 | 16660 ft | 326 kts | 4° |
| 2026-04-15 03:38 | 1.00521 | 101.31367 | 16078 ft | 325 kts | 5° |
| 2026-04-15 03:38 | 1.02773 | 101.31558 | 15507 ft | 324 kts | 4° |
| 2026-04-15 03:38 | 1.05021 | 101.31741 | 14952 ft | 323 kts | 4° |
| 2026-04-15 03:38 | 1.07259 | 101.31910 | 14399 ft | 323 kts | 4° |
| 2026-04-15 03:39 | 1.09500 | 101.32071 | 13853 ft | 322 kts | 3° |
| 2026-04-15 03:39 | 1.11727 | 101.32227 | 13270 ft | 321 kts | 3° |
| 2026-04-15 03:39 | 1.13951 | 101.32427 | 12675 ft | 320 kts | 11° |
| 2026-04-15 03:39 | 1.16025 | 101.33217 | 12069 ft | 319 kts | 30° |
| 2026-04-15 03:40 | 1.17793 | 101.34538 | 11500 ft | 318 kts | 44° |
| 2026-04-15 03:40 | 1.18771 | 101.35624 | 11176 ft | 315 kts | 53° |
| 2026-04-15 03:40 | 1.19843 | 101.37475 | 11012 ft | 299 kts | 69° |
| 2026-04-15 03:40 | 1.20383 | 101.39419 | 10802 ft | 287 kts | 83° |
| 2026-04-15 03:41 | 1.20404 | 101.41414 | 10307 ft | 290 kts | 99° |
| 2026-04-15 03:41 | 1.19902 | 101.43381 | 9795 ft | 296 kts | 115° |
| 2026-04-15 03:41 | 1.18678 | 101.45021 | 9324 ft | 295 kts | 144° |
| 2026-04-15 03:41 | 1.16900 | 101.45910 | 9227 ft | 282 kts | 167° |
| 2026-04-15 03:42 | 1.14992 | 101.46169 | 9102 ft | 272 kts | 176° |
| 2026-04-15 03:42 | 1.13123 | 101.46303 | 8975 ft | 265 kts | 177° |
| 2026-04-15 03:42 | 1.11295 | 101.46425 | 8953 ft | 261 kts | 177° |
| 2026-04-15 03:42 | 1.09496 | 101.46547 | 8941 ft | 258 kts | 177° |
| 2026-04-15 03:43 | 1.07696 | 101.46674 | 8950 ft | 261 kts | 177° |
| 2026-04-15 03:43 | 1.05891 | 101.46805 | 8954 ft | 265 kts | 177° |
| 2026-04-15 03:43 | 1.04047 | 101.46941 | 8942 ft | 265 kts | 177° |
| 2026-04-15 03:43 | 1.02218 | 101.47079 | 8932 ft | 263 kts | 177° |
| 2026-04-15 03:44 | 1.00392 | 101.47217 | 8932 ft | 262 kts | 177° |
| 2026-04-15 03:44 | 0.98566 | 101.47356 | 8932 ft | 261 kts | 177° |
| 2026-04-15 03:44 | 0.96757 | 101.47494 | 8935 ft | 261 kts | 177° |
| 2026-04-15 03:44 | 0.94953 | 101.47717 | 8932 ft | 262 kts | 167° |
| 2026-04-15 03:45 | 0.93213 | 101.48263 | 8944 ft | 263 kts | 162° |
| 2026-04-15 03:45 | 0.91513 | 101.48882 | 8942 ft | 264 kts | 161° |
| 2026-04-15 03:45 | 0.89787 | 101.49518 | 8936 ft | 265 kts | 161° |
| 2026-04-15 03:45 | 0.88052 | 101.50150 | 8931 ft | 266 kts | 161° |
| 2026-04-15 03:46 | 0.86308 | 101.50775 | 8935 ft | 266 kts | 162° |
| 2026-04-15 03:46 | 0.84560 | 101.51394 | 8935 ft | 267 kts | 162° |
| 2026-04-15 03:46 | 0.82806 | 101.52011 | 8931 ft | 267 kts | 162° |
| 2026-04-15 03:46 | 0.81054 | 101.52624 | 8935 ft | 267 kts | 162° |
| 2026-04-15 03:47 | 0.79299 | 101.53237 | 8933 ft | 267 kts | 162° |
| 2026-04-15 03:47 | 0.77542 | 101.53849 | 8932 ft | 267 kts | 162° |
| 2026-04-15 03:47 | 0.75762 | 101.54468 | 8584 ft | 276 kts | 162° |
| 2026-04-15 03:47 | 0.73933 | 101.55104 | 8144 ft | 280 kts | 162° |
| 2026-04-15 03:48 | 0.72079 | 101.55748 | 7720 ft | 284 kts | 162° |
| 2026-04-15 03:48 | 0.70201 | 101.56401 | 7302 ft | 287 kts | 162° |
| 2026-04-15 03:48 | 0.68303 | 101.57037 | 6888 ft | 289 kts | 166° |
| 2026-04-15 03:48 | 0.66300 | 101.57213 | 6466 ft | 290 kts | 182° |
| 2026-04-15 03:49 | 0.64301 | 101.57153 | 6054 ft | 292 kts | 182° |
| 2026-04-15 03:49 | 0.62236 | 101.57083 | 5616 ft | 294 kts | 182° |
| 2026-04-15 03:49 | 0.60198 | 101.57021 | 5176 ft | 291 kts | 182° |
| 2026-04-15 03:49 | 0.58217 | 101.56970 | 4989 ft | 277 kts | 181° |
| 2026-04-15 03:50 | 0.56328 | 101.56926 | 4938 ft | 265 kts | 181° |
| 2026-04-15 03:50 | 0.54548 | 101.56888 | 4932 ft | 253 kts | 181° |
| 2026-04-15 03:50 | 0.52798 | 101.56853 | 4937 ft | 250 kts | 181° |
| 2026-04-15 03:50 | 0.51064 | 101.56819 | 4944 ft | 248 kts | 181° |
| 2026-04-15 03:51 | 0.49343 | 101.56786 | 4948 ft | 247 kts | 181° |
| 2026-04-15 03:51 | 0.47617 | 101.56753 | 4945 ft | 247 kts | 181° |
| 2026-04-15 03:51 | 0.45898 | 101.56721 | 4942 ft | 247 kts | 181° |
| 2026-04-15 03:51 | 0.44203 | 101.56692 | 4942 ft | 247 kts | 180° |
| 2026-04-15 03:52 | 0.42485 | 101.56724 | 4944 ft | 247 kts | 179° |
| 2026-04-15 03:52 | 0.40768 | 101.56777 | 4946 ft | 246 kts | 179° |
| 2026-04-15 03:52 | 0.39049 | 101.56829 | 4938 ft | 247 kts | 178° |
| 2026-04-15 03:52 | 0.37332 | 101.56878 | 4943 ft | 247 kts | 179° |
| 2026-04-15 03:53 | 0.35611 | 101.56925 | 4940 ft | 248 kts | 179° |
| 2026-04-15 03:53 | 0.33884 | 101.56971 | 4942 ft | 248 kts | 179° |
| 2026-04-15 03:53 | 0.32155 | 101.57016 | 4942 ft | 249 kts | 179° |
| 2026-04-15 03:53 | 0.30420 | 101.56983 | 4934 ft | 250 kts | 191° |
| 2026-04-15 03:54 | 0.28782 | 101.56421 | 4943 ft | 249 kts | 201° |
| 2026-04-15 03:54 | 0.27166 | 101.55791 | 4931 ft | 249 kts | 201° |
| 2026-04-15 03:54 | 0.25631 | 101.55092 | 4869 ft | 236 kts | 217° |
| 2026-04-15 03:55 | 0.24447 | 101.52294 | 4236 ft | 230 kts | 281° |
| 2026-04-15 03:55 | 0.24965 | 101.50790 | 3901 ft | 228 kts | 292° |
| 2026-04-15 03:55 | 0.25589 | 101.49354 | 3546 ft | 228 kts | 292° |
| 2026-04-15 03:55 | 0.26248 | 101.47912 | 3185 ft | 228 kts | 299° |
| 2026-04-15 03:56 | 0.27127 | 101.46621 | 2963 ft | 220 kts | 313° |
| 2026-04-15 03:56 | 0.28297 | 101.45732 | 2940 ft | 202 kts | 326° |
| 2026-04-15 03:56 | 0.29419 | 101.44967 | 2920 ft | 189 kts | 325° |
| 2026-04-15 03:56 | 0.30512 | 101.44240 | 2695 ft | 186 kts | 333° |
| 2026-04-15 03:57 | 0.31024 | 101.44050 | 2634 ft | 184 kts | 352° |
| 2026-04-15 03:57 | 0.31182 | 101.44027 | 2608 ft | 184 kts | 356° |
| 2026-04-15 03:57 | 0.31849 | 101.44040 | 2545 ft | 184 kts | 4° |
| 2026-04-15 03:57 | 0.33142 | 101.44095 | 2285 ft | 185 kts | 1° |
| 2026-04-15 03:58 | 0.34425 | 101.44119 | 2048 ft | 181 kts | 1° |
| 2026-04-15 03:58 | 0.35562 | 101.44149 | 1868 ft | 166 kts | 1° |
| 2026-04-15 03:58 | 0.36676 | 101.44181 | 1621 ft | 153 kts | 1° |
| 2026-04-15 03:58 | 0.37698 | 101.44211 | 1417 ft | 143 kts | 2° |
| 2026-04-15 03:59 | 0.38662 | 101.44239 | 1252 ft | 140 kts | 1° |
| 2026-04-15 03:59 | 0.39649 | 101.44267 | 1081 ft | 141 kts | 1° |
| 2026-04-15 03:59 | 0.40625 | 101.44295 | 919 ft | 142 kts | 1° |
| 2026-04-15 03:59 | 0.41624 | 101.44324 | 708 ft | 145 kts | 0° |
| 2026-04-15 04:00 | 0.42618 | 101.44342 | 563 ft | 142 kts | 0° |
| 2026-04-15 04:00 | 0.43621 | 101.44368 | 388 ft | 144 kts | 3° |
| 2026-04-15 04:00 | 0.44613 | 101.44420 | 214 ft | 142 kts | 359° |
| 2026-04-15 04:00 | 0.45587 | 101.44432 | 130 ft | 131 kts | 3° |
| 2026-04-15 04:01 | 0.46335 | 101.44458 | 143 ft | 87 kts | 1° |
| 2026-04-15 04:01 | 0.46627 | 101.44485 | 147 ft | 11 kts | 52° |
| 2026-04-15 04:01 | 0.46631 | 101.44493 | 147 ft | 6 kts | 65° |
| 2026-04-15 04:01 | 0.46632 | 101.44528 | 147 ft | 8 kts | 92° |
| 2026-04-15 04:02 | 0.46623 | 101.44583 | 147 ft | 0 kts | 135° |
| 2026-04-15 04:02 | 0.46596 | 101.44592 | 146 ft | 10 kts | 176° |
| 2026-04-15 04:02 | 0.46520 | 101.44615 | 146 ft | 13 kts | 114° |
| 2026-04-15 04:02 | 0.46516 | 101.44652 | 146 ft | 0 kts | 90° |
| 2026-04-15 04:03 | 0.46516 | 101.44654 | 146 ft | 2 kts | 90° |
| 2026-04-15 04:03 | 0.46516 | 101.44671 | 146 ft | 0 kts | 91° |